sensor_id;sensor_type;location;lat;lon;timestamp;P1;durP1;ratioP1;P2;durP2;ratioP2
7645;SDS011;3864;48.180;14.178;2024-03-08T00:01:45;84.35;;;28.67;;
7645;SDS011;3864;48.180;14.178;2024-03-08T00:04:12;76.07;;;23.98;;
7645;SDS011;3864;48.180;14.178;2024-03-08T00:06:42;77.40;;;25.80;;
7645;SDS011;3864;48.180;14.178;2024-03-08T00:09:11;75.00;;;26.25;;
7645;SDS011;3864;48.180;14.178;2024-03-08T00:11:38;77.93;;;27.20;;
7645;SDS011;3864;48.180;14.178;2024-03-08T00:14:06;73.63;;;24.23;;
7645;SDS011;3864;48.180;14.178;2024-03-08T00:16:33;86.18;;;26.23;;
7645;SDS011;3864;48.180;14.178;2024-03-08T00:19:01;81.30;;;27.55;;
7645;SDS011;3864;48.180;14.178;2024-03-08T00:21:28;80.95;;;28.05;;
7645;SDS011;3864;48.180;14.178;2024-03-08T00:23:58;87.05;;;27.70;;
7645;SDS011;3864;48.180;14.178;2024-03-08T00:26:26;78.45;;;25.95;;
7645;SDS011;3864;48.180;14.178;2024-03-08T00:28:54;88.60;;;26.75;;
7645;SDS011;3864;48.180;14.178;2024-03-08T00:31:21;92.97;;;28.35;;
7645;SDS011;3864;48.180;14.178;2024-03-08T00:33:48;74.43;;;24.80;;
7645;SDS011;3864;48.180;14.178;2024-03-08T00:36:14;94.05;;;28.85;;
7645;SDS011;3864;48.180;14.178;2024-03-08T00:38:42;74.50;;;24.95;;
7645;SDS011;3864;48.180;14.178;2024-03-08T00:41:11;81.60;;;26.92;;
7645;SDS011;3864;48.180;14.178;2024-03-08T00:43:38;88.03;;;27.17;;
7645;SDS011;3864;48.180;14.178;2024-03-08T00:46:06;80.80;;;27.83;;
7645;SDS011;3864;48.180;14.178;2024-03-08T00:48:33;79.28;;;25.08;;
7645;SDS011;3864;48.180;14.178;2024-03-08T00:51:03;81.40;;;26.33;;
7645;SDS011;3864;48.180;14.178;2024-03-08T00:53:30;86.80;;;29.80;;
7645;SDS011;3864;48.180;14.178;2024-03-08T00:55:58;80.05;;;26.85;;
7645;SDS011;3864;48.180;14.178;2024-03-08T00:58:27;80.50;;;27.88;;
7645;SDS011;3864;48.180;14.178;2024-03-08T01:00:55;88.10;;;27.50;;
7645;SDS011;3864;48.180;14.178;2024-03-08T01:03:24;85.78;;;28.33;;
7645;SDS011;3864;48.180;14.178;2024-03-08T01:05:52;81.38;;;28.98;;
7645;SDS011;3864;48.180;14.178;2024-03-08T01:08:19;75.28;;;26.42;;
7645;SDS011;3864;48.180;14.178;2024-03-08T01:10:47;85.15;;;26.58;;
7645;SDS011;3864;48.180;14.178;2024-03-08T01:13:16;87.60;;;27.75;;
7645;SDS011;3864;48.180;14.178;2024-03-08T01:15:46;84.80;;;28.13;;
7645;SDS011;3864;48.180;14.178;2024-03-08T01:18:14;84.60;;;27.98;;
7645;SDS011;3864;48.180;14.178;2024-03-08T01:20:40;82.82;;;28.05;;
7645;SDS011;3864;48.180;14.178;2024-03-08T01:23:07;81.68;;;26.25;;
7645;SDS011;3864;48.180;14.178;2024-03-08T01:28:01;79.00;;;24.92;;
7645;SDS011;3864;48.180;14.178;2024-03-08T01:30:30;78.03;;;24.35;;
7645;SDS011;3864;48.180;14.178;2024-03-08T01:33:01;83.25;;;26.83;;
7645;SDS011;3864;48.180;14.178;2024-03-08T01:35:29;84.38;;;28.05;;
7645;SDS011;3864;48.180;14.178;2024-03-08T01:37:56;84.35;;;26.90;;
7645;SDS011;3864;48.180;14.178;2024-03-08T01:40:23;80.80;;;26.52;;
7645;SDS011;3864;48.180;14.178;2024-03-08T01:42:51;87.28;;;28.98;;
7645;SDS011;3864;48.180;14.178;2024-03-08T01:45:19;74.07;;;26.50;;
7645;SDS011;3864;48.180;14.178;2024-03-08T01:47:46;73.53;;;24.55;;
7645;SDS011;3864;48.180;14.178;2024-03-08T01:50:16;78.85;;;26.63;;
7645;SDS011;3864;48.180;14.178;2024-03-08T01:52:45;84.30;;;27.55;;
7645;SDS011;3864;48.180;14.178;2024-03-08T01:55:12;82.13;;;26.55;;
7645;SDS011;3864;48.180;14.178;2024-03-08T01:57:41;89.05;;;26.77;;
7645;SDS011;3864;48.180;14.178;2024-03-08T02:00:09;88.70;;;25.80;;
7645;SDS011;3864;48.180;14.178;2024-03-08T02:02:37;78.57;;;26.27;;
7645;SDS011;3864;48.180;14.178;2024-03-08T02:05:10;75.28;;;25.25;;
7645;SDS011;3864;48.180;14.178;2024-03-08T02:07:42;80.93;;;26.67;;
7645;SDS011;3864;48.180;14.178;2024-03-08T02:10:10;84.97;;;28.67;;
7645;SDS011;3864;48.180;14.178;2024-03-08T02:12:38;76.50;;;26.40;;
7645;SDS011;3864;48.180;14.178;2024-03-08T02:15:06;77.82;;;26.45;;
7645;SDS011;3864;48.180;14.178;2024-03-08T02:17:34;72.80;;;25.42;;
7645;SDS011;3864;48.180;14.178;2024-03-08T02:20:01;73.63;;;25.83;;
7645;SDS011;3864;48.180;14.178;2024-03-08T02:22:31;80.35;;;27.20;;
7645;SDS011;3864;48.180;14.178;2024-03-08T02:24:59;76.90;;;25.40;;
7645;SDS011;3864;48.180;14.178;2024-03-08T02:27:27;82.90;;;27.85;;
7645;SDS011;3864;48.180;14.178;2024-03-08T02:29:56;81.90;;;29.42;;
7645;SDS011;3864;48.180;14.178;2024-03-08T02:32:27;83.82;;;26.92;;
7645;SDS011;3864;48.180;14.178;2024-03-08T02:34:56;81.68;;;28.38;;
7645;SDS011;3864;48.180;14.178;2024-03-08T02:37:25;73.20;;;26.48;;
7645;SDS011;3864;48.180;14.178;2024-03-08T02:39:57;80.00;;;26.45;;
7645;SDS011;3864;48.180;14.178;2024-03-08T02:42:30;80.50;;;25.88;;
7645;SDS011;3864;48.180;14.178;2024-03-08T02:45:00;74.55;;;25.20;;
7645;SDS011;3864;48.180;14.178;2024-03-08T02:47:31;78.95;;;26.50;;
7645;SDS011;3864;48.180;14.178;2024-03-08T02:50:00;78.75;;;25.45;;
7645;SDS011;3864;48.180;14.178;2024-03-08T02:52:28;79.85;;;25.25;;
7645;SDS011;3864;48.180;14.178;2024-03-08T02:55:00;77.57;;;27.52;;
7645;SDS011;3864;48.180;14.178;2024-03-08T02:57:28;85.22;;;28.95;;
7645;SDS011;3864;48.180;14.178;2024-03-08T03:00:06;83.05;;;27.50;;
7645;SDS011;3864;48.180;14.178;2024-03-08T03:02:34;81.97;;;27.63;;
7645;SDS011;3864;48.180;14.178;2024-03-08T03:05:04;79.75;;;26.17;;
7645;SDS011;3864;48.180;14.178;2024-03-08T03:07:36;79.65;;;27.15;;
7645;SDS011;3864;48.180;14.178;2024-03-08T03:10:08;84.80;;;28.77;;
7645;SDS011;3864;48.180;14.178;2024-03-08T03:12:43;72.57;;;24.48;;
7645;SDS011;3864;48.180;14.178;2024-03-08T03:15:14;84.07;;;27.15;;
7645;SDS011;3864;48.180;14.178;2024-03-08T03:17:48;84.35;;;28.52;;
7645;SDS011;3864;48.180;14.178;2024-03-08T03:20:18;84.00;;;27.80;;
7645;SDS011;3864;48.180;14.178;2024-03-08T03:23:07;85.55;;;28.73;;
7645;SDS011;3864;48.180;14.178;2024-03-08T03:25:44;76.18;;;26.27;;
7645;SDS011;3864;48.180;14.178;2024-03-08T03:28:14;72.53;;;26.58;;
7645;SDS011;3864;48.180;14.178;2024-03-08T03:30:49;81.00;;;26.75;;
7645;SDS011;3864;48.180;14.178;2024-03-08T03:33:19;75.57;;;25.17;;
7645;SDS011;3864;48.180;14.178;2024-03-08T03:35:48;83.65;;;29.25;;
7645;SDS011;3864;48.180;14.178;2024-03-08T03:38:17;84.00;;;27.73;;
7645;SDS011;3864;48.180;14.178;2024-03-08T03:40:59;74.28;;;29.63;;
7645;SDS011;3864;48.180;14.178;2024-03-08T03:43:35;78.28;;;25.23;;
7645;SDS011;3864;48.180;14.178;2024-03-08T03:46:05;73.63;;;26.30;;
7645;SDS011;3864;48.180;14.178;2024-03-08T03:48:41;69.53;;;24.20;;
7645;SDS011;3864;48.180;14.178;2024-03-08T03:51:16;67.05;;;24.40;;
7645;SDS011;3864;48.180;14.178;2024-03-08T03:53:46;79.20;;;25.25;;
7645;SDS011;3864;48.180;14.178;2024-03-08T03:56:17;77.78;;;25.40;;
7645;SDS011;3864;48.180;14.178;2024-03-08T03:58:44;72.22;;;26.48;;
7645;SDS011;3864;48.180;14.178;2024-03-08T04:01:13;72.53;;;25.60;;
7645;SDS011;3864;48.180;14.178;2024-03-08T04:03:41;80.15;;;27.42;;
7645;SDS011;3864;48.180;14.178;2024-03-08T04:06:09;71.57;;;23.70;;
7645;SDS011;3864;48.180;14.178;2024-03-08T04:08:37;72.53;;;25.60;;
7645;SDS011;3864;48.180;14.178;2024-03-08T04:11:07;73.43;;;23.63;;
7645;SDS011;3864;48.180;14.178;2024-03-08T04:13:36;72.88;;;23.77;;
7645;SDS011;3864;48.180;14.178;2024-03-08T04:16:04;71.65;;;25.60;;
7645;SDS011;3864;48.180;14.178;2024-03-08T04:18:33;67.45;;;24.58;;
7645;SDS011;3864;48.180;14.178;2024-03-08T04:21:03;71.32;;;24.98;;
7645;SDS011;3864;48.180;14.178;2024-03-08T04:23:33;76.38;;;26.88;;
7645;SDS011;3864;48.180;14.178;2024-03-08T04:26:00;70.88;;;25.02;;
7645;SDS011;3864;48.180;14.178;2024-03-08T04:28:29;73.68;;;25.35;;
7645;SDS011;3864;48.180;14.178;2024-03-08T04:30:59;76.50;;;25.38;;
7645;SDS011;3864;48.180;14.178;2024-03-08T04:33:27;68.03;;;25.15;;
7645;SDS011;3864;48.180;14.178;2024-03-08T04:35:54;67.20;;;23.48;;
7645;SDS011;3864;48.180;14.178;2024-03-08T04:38:23;69.95;;;24.90;;
7645;SDS011;3864;48.180;14.178;2024-03-08T04:40:51;67.05;;;22.98;;
7645;SDS011;3864;48.180;14.178;2024-03-08T04:43:18;72.82;;;26.35;;
7645;SDS011;3864;48.180;14.178;2024-03-08T04:45:46;76.03;;;27.02;;
7645;SDS011;3864;48.180;14.178;2024-03-08T04:48:15;72.35;;;25.25;;
7645;SDS011;3864;48.180;14.178;2024-03-08T04:50:43;71.38;;;25.25;;
7645;SDS011;3864;48.180;14.178;2024-03-08T04:53:10;70.55;;;24.08;;
7645;SDS011;3864;48.180;14.178;2024-03-08T04:55:40;71.90;;;25.52;;
7645;SDS011;3864;48.180;14.178;2024-03-08T04:58:09;74.28;;;25.92;;
7645;SDS011;3864;48.180;14.178;2024-03-08T05:00:38;71.80;;;24.80;;
7645;SDS011;3864;48.180;14.178;2024-03-08T05:03:05;76.40;;;27.08;;
7645;SDS011;3864;48.180;14.178;2024-03-08T05:05:37;74.20;;;29.85;;
7645;SDS011;3864;48.180;14.178;2024-03-08T05:08:11;76.25;;;26.08;;
7645;SDS011;3864;48.180;14.178;2024-03-08T05:10:43;76.47;;;26.80;;
7645;SDS011;3864;48.180;14.178;2024-03-08T05:13:18;66.38;;;23.80;;
7645;SDS011;3864;48.180;14.178;2024-03-08T05:15:47;77.60;;;28.17;;
7645;SDS011;3864;48.180;14.178;2024-03-08T05:18:18;66.90;;;24.30;;
7645;SDS011;3864;48.180;14.178;2024-03-08T05:20:51;73.97;;;24.55;;
7645;SDS011;3864;48.180;14.178;2024-03-08T05:23:18;68.55;;;25.63;;
7645;SDS011;3864;48.180;14.178;2024-03-08T05:25:47;75.13;;;25.40;;
7645;SDS011;3864;48.180;14.178;2024-03-08T05:28:15;75.40;;;25.50;;
7645;SDS011;3864;48.180;14.178;2024-03-08T05:30:43;70.35;;;25.35;;
7645;SDS011;3864;48.180;14.178;2024-03-08T05:33:11;69.18;;;25.88;;
7645;SDS011;3864;48.180;14.178;2024-03-08T05:35:39;75.88;;;26.75;;
7645;SDS011;3864;48.180;14.178;2024-03-08T05:38:08;67.47;;;24.52;;
7645;SDS011;3864;48.180;14.178;2024-03-08T05:40:38;67.70;;;23.90;;
7645;SDS011;3864;48.180;14.178;2024-03-08T05:45:34;62.17;;;22.45;;
7645;SDS011;3864;48.180;14.178;2024-03-08T05:48:02;66.75;;;22.70;;
7645;SDS011;3864;48.180;14.178;2024-03-08T05:50:32;60.33;;;22.17;;
7645;SDS011;3864;48.180;14.178;2024-03-08T05:53:00;72.20;;;25.70;;
7645;SDS011;3864;48.180;14.178;2024-03-08T05:55:29;69.30;;;24.08;;
7645;SDS011;3864;48.180;14.178;2024-03-08T05:58:00;66.15;;;23.27;;
7645;SDS011;3864;48.180;14.178;2024-03-08T06:00:29;73.45;;;24.33;;
7645;SDS011;3864;48.180;14.178;2024-03-08T06:02:56;70.20;;;22.70;;
7645;SDS011;3864;48.180;14.178;2024-03-08T06:05:23;68.85;;;22.63;;
7645;SDS011;3864;48.180;14.178;2024-03-08T06:07:51;69.95;;;24.08;;
7645;SDS011;3864;48.180;14.178;2024-03-08T06:10:19;67.10;;;23.88;;
7645;SDS011;3864;48.180;14.178;2024-03-08T06:12:50;66.90;;;23.38;;
7645;SDS011;3864;48.180;14.178;2024-03-08T06:15:19;69.68;;;23.92;;
7645;SDS011;3864;48.180;14.178;2024-03-08T06:17:46;67.82;;;24.73;;
7645;SDS011;3864;48.180;14.178;2024-03-08T06:20:17;71.38;;;23.92;;
7645;SDS011;3864;48.180;14.178;2024-03-08T06:22:45;78.80;;;25.27;;
7645;SDS011;3864;48.180;14.178;2024-03-08T06:25:12;73.90;;;26.98;;
7645;SDS011;3864;48.180;14.178;2024-03-08T06:27:41;70.65;;;25.83;;
7645;SDS011;3864;48.180;14.178;2024-03-08T06:30:19;71.75;;;26.55;;
7645;SDS011;3864;48.180;14.178;2024-03-08T06:32:47;75.57;;;26.95;;
7645;SDS011;3864;48.180;14.178;2024-03-08T06:35:16;74.35;;;25.70;;
7645;SDS011;3864;48.180;14.178;2024-03-08T06:37:45;71.60;;;26.27;;
7645;SDS011;3864;48.180;14.178;2024-03-08T06:40:14;59.97;;;24.95;;
7645;SDS011;3864;48.180;14.178;2024-03-08T06:42:42;80.43;;;26.08;;
7645;SDS011;3864;48.180;14.178;2024-03-08T06:45:10;77.18;;;26.02;;
7645;SDS011;3864;48.180;14.178;2024-03-08T06:47:42;74.20;;;25.40;;
7645;SDS011;3864;48.180;14.178;2024-03-08T06:50:10;73.68;;;27.17;;
7645;SDS011;3864;48.180;14.178;2024-03-08T06:52:38;73.63;;;27.80;;
7645;SDS011;3864;48.180;14.178;2024-03-08T06:55:08;70.00;;;26.52;;
7645;SDS011;3864;48.180;14.178;2024-03-08T06:57:37;73.85;;;26.27;;
7645;SDS011;3864;48.180;14.178;2024-03-08T07:00:06;69.93;;;25.75;;
7645;SDS011;3864;48.180;14.178;2024-03-08T07:02:37;70.03;;;26.00;;
7645;SDS011;3864;48.180;14.178;2024-03-08T07:05:08;72.85;;;27.40;;
7645;SDS011;3864;48.180;14.178;2024-03-08T07:07:35;80.40;;;26.23;;
7645;SDS011;3864;48.180;14.178;2024-03-08T07:10:06;72.80;;;27.40;;
7645;SDS011;3864;48.180;14.178;2024-03-08T07:12:38;74.43;;;24.35;;
7645;SDS011;3864;48.180;14.178;2024-03-08T07:15:08;82.18;;;28.38;;
7645;SDS011;3864;48.180;14.178;2024-03-08T07:17:38;84.03;;;29.38;;
7645;SDS011;3864;48.180;14.178;2024-03-08T07:20:09;68.10;;;27.08;;
7645;SDS011;3864;48.180;14.178;2024-03-08T07:22:39;74.22;;;27.90;;
7645;SDS011;3864;48.180;14.178;2024-03-08T07:25:07;80.28;;;28.13;;
7645;SDS011;3864;48.180;14.178;2024-03-08T07:27:46;75.95;;;26.98;;
7645;SDS011;3864;48.180;14.178;2024-03-08T07:30:14;75.85;;;26.77;;
7645;SDS011;3864;48.180;14.178;2024-03-08T07:32:58;80.50;;;29.45;;
7645;SDS011;3864;48.180;14.178;2024-03-08T07:35:29;95.35;;;34.70;;
7645;SDS011;3864;48.180;14.178;2024-03-08T07:37:56;72.75;;;27.35;;
7645;SDS011;3864;48.180;14.178;2024-03-08T07:40:25;69.00;;;27.23;;
7645;SDS011;3864;48.180;14.178;2024-03-08T07:42:53;73.63;;;27.55;;
7645;SDS011;3864;48.180;14.178;2024-03-08T07:45:20;72.68;;;28.88;;
7645;SDS011;3864;48.180;14.178;2024-03-08T07:47:48;74.50;;;27.10;;
7645;SDS011;3864;48.180;14.178;2024-03-08T07:50:16;71.60;;;28.15;;
7645;SDS011;3864;48.180;14.178;2024-03-08T07:52:46;76.10;;;27.83;;
7645;SDS011;3864;48.180;14.178;2024-03-08T07:55:14;70.05;;;30.25;;
7645;SDS011;3864;48.180;14.178;2024-03-08T07:57:42;74.90;;;26.35;;
7645;SDS011;3864;48.180;14.178;2024-03-08T08:00:13;68.55;;;26.38;;
7645;SDS011;3864;48.180;14.178;2024-03-08T08:02:43;69.05;;;27.25;;
7645;SDS011;3864;48.180;14.178;2024-03-08T08:05:11;64.78;;;26.05;;
7645;SDS011;3864;48.180;14.178;2024-03-08T08:07:40;67.25;;;28.90;;
7645;SDS011;3864;48.180;14.178;2024-03-08T08:10:13;63.25;;;26.33;;
7645;SDS011;3864;48.180;14.178;2024-03-08T08:12:43;65.10;;;26.77;;
7645;SDS011;3864;48.180;14.178;2024-03-08T08:15:15;63.20;;;26.23;;
7645;SDS011;3864;48.180;14.178;2024-03-08T08:17:43;66.07;;;29.50;;
7645;SDS011;3864;48.180;14.178;2024-03-08T08:20:10;61.75;;;25.25;;
7645;SDS011;3864;48.180;14.178;2024-03-08T08:22:38;57.40;;;24.70;;
7645;SDS011;3864;48.180;14.178;2024-03-08T08:25:09;60.83;;;27.17;;
7645;SDS011;3864;48.180;14.178;2024-03-08T08:27:40;58.58;;;25.42;;
7645;SDS011;3864;48.180;14.178;2024-03-08T08:30:09;57.33;;;24.33;;
7645;SDS011;3864;48.180;14.178;2024-03-08T08:32:37;52.88;;;24.13;;
7645;SDS011;3864;48.180;14.178;2024-03-08T08:35:07;52.72;;;23.25;;
7645;SDS011;3864;48.180;14.178;2024-03-08T08:37:40;46.83;;;21.95;;
7645;SDS011;3864;48.180;14.178;2024-03-08T08:40:12;45.28;;;20.60;;
7645;SDS011;3864;48.180;14.178;2024-03-08T08:42:50;43.25;;;20.48;;
7645;SDS011;3864;48.180;14.178;2024-03-08T08:45:25;46.20;;;21.60;;
7645;SDS011;3864;48.180;14.178;2024-03-08T08:47:56;47.45;;;20.33;;
7645;SDS011;3864;48.180;14.178;2024-03-08T08:50:33;43.72;;;21.45;;
7645;SDS011;3864;48.180;14.178;2024-03-08T08:53:07;44.17;;;21.70;;
7645;SDS011;3864;48.180;14.178;2024-03-08T08:55:39;42.53;;;21.48;;
7645;SDS011;3864;48.180;14.178;2024-03-08T08:58:49;42.22;;;21.17;;
7645;SDS011;3864;48.180;14.178;2024-03-08T09:01:21;41.05;;;19.70;;
7645;SDS011;3864;48.180;14.178;2024-03-08T09:06:31;40.75;;;19.77;;
7645;SDS011;3864;48.180;14.178;2024-03-08T09:09:01;41.03;;;19.08;;
7645;SDS011;3864;48.180;14.178;2024-03-08T09:11:45;39.72;;;18.70;;
7645;SDS011;3864;48.180;14.178;2024-03-08T09:17:16;39.85;;;19.10;;
7645;SDS011;3864;48.180;14.178;2024-03-08T09:19:55;42.30;;;19.02;;
7645;SDS011;3864;48.180;14.178;2024-03-08T09:22:39;40.55;;;19.52;;
7645;SDS011;3864;48.180;14.178;2024-03-08T09:25:29;40.70;;;19.02;;
7645;SDS011;3864;48.180;14.178;2024-03-08T09:28:34;36.63;;;17.58;;
7645;SDS011;3864;48.180;14.178;2024-03-08T09:34:25;39.30;;;19.15;;
7645;SDS011;3864;48.180;14.178;2024-03-08T09:37:09;38.67;;;19.02;;
7645;SDS011;3864;48.180;14.178;2024-03-08T09:39:52;41.95;;;19.17;;
7645;SDS011;3864;48.180;14.178;2024-03-08T09:42:45;38.30;;;18.40;;
7645;SDS011;3864;48.180;14.178;2024-03-08T09:45:22;36.20;;;17.92;;
7645;SDS011;3864;48.180;14.178;2024-03-08T09:48:01;35.20;;;17.30;;
7645;SDS011;3864;48.180;14.178;2024-03-08T09:50:37;32.17;;;16.70;;
7645;SDS011;3864;48.180;14.178;2024-03-08T09:53:10;36.35;;;17.65;;
7645;SDS011;3864;48.180;14.178;2024-03-08T09:55:44;31.60;;;15.75;;
7645;SDS011;3864;48.180;14.178;2024-03-08T09:58:19;33.90;;;16.55;;
7645;SDS011;3864;48.180;14.178;2024-03-08T10:01:04;30.83;;;15.05;;
7645;SDS011;3864;48.180;14.178;2024-03-08T10:03:40;31.42;;;16.17;;
7645;SDS011;3864;48.180;14.178;2024-03-08T10:06:10;28.38;;;13.88;;
7645;SDS011;3864;48.180;14.178;2024-03-08T10:08:38;27.42;;;14.25;;
7645;SDS011;3864;48.180;14.178;2024-03-08T10:11:20;30.88;;;15.90;;
7645;SDS011;3864;48.180;14.178;2024-03-08T10:13:47;27.98;;;15.23;;
7645;SDS011;3864;48.180;14.178;2024-03-08T10:16:16;28.95;;;15.02;;
7645;SDS011;3864;48.180;14.178;2024-03-08T10:18:49;25.83;;;13.98;;
7645;SDS011;3864;48.180;14.178;2024-03-08T10:21:19;26.13;;;15.00;;
7645;SDS011;3864;48.180;14.178;2024-03-08T10:23:48;26.92;;;13.95;;
7645;SDS011;3864;48.180;14.178;2024-03-08T10:26:15;25.35;;;15.30;;
7645;SDS011;3864;48.180;14.178;2024-03-08T10:28:44;28.10;;;14.45;;
7645;SDS011;3864;48.180;14.178;2024-03-08T10:31:15;26.13;;;13.68;;
7645;SDS011;3864;48.180;14.178;2024-03-08T10:33:44;25.15;;;12.98;;
7645;SDS011;3864;48.180;14.178;2024-03-08T10:36:32;23.48;;;13.38;;
7645;SDS011;3864;48.180;14.178;2024-03-08T10:39:06;25.23;;;13.90;;
7645;SDS011;3864;48.180;14.178;2024-03-08T10:41:42;24.90;;;14.02;;
7645;SDS011;3864;48.180;14.178;2024-03-08T10:44:18;27.10;;;13.93;;
7645;SDS011;3864;48.180;14.178;2024-03-08T10:47:00;22.58;;;13.13;;
7645;SDS011;3864;48.180;14.178;2024-03-08T10:49:37;26.17;;;13.05;;
7645;SDS011;3864;48.180;14.178;2024-03-08T10:52:22;23.77;;;12.82;;
7645;SDS011;3864;48.180;14.178;2024-03-08T10:54:51;21.80;;;11.98;;
7645;SDS011;3864;48.180;14.178;2024-03-08T10:57:24;20.17;;;12.27;;
7645;SDS011;3864;48.180;14.178;2024-03-08T10:59:56;21.40;;;12.90;;
7645;SDS011;3864;48.180;14.178;2024-03-08T11:02:31;20.58;;;13.00;;
7645;SDS011;3864;48.180;14.178;2024-03-08T11:05:03;24.42;;;14.40;;
7645;SDS011;3864;48.180;14.178;2024-03-08T11:07:43;23.70;;;14.00;;
7645;SDS011;3864;48.180;14.178;2024-03-08T11:10:20;22.48;;;14.05;;
7645;SDS011;3864;48.180;14.178;2024-03-08T11:12:59;24.33;;;13.95;;
7645;SDS011;3864;48.180;14.178;2024-03-08T11:15:28;27.25;;;13.70;;
7645;SDS011;3864;48.180;14.178;2024-03-08T11:17:59;25.90;;;13.70;;
7645;SDS011;3864;48.180;14.178;2024-03-08T11:20:38;22.33;;;13.30;;
7645;SDS011;3864;48.180;14.178;2024-03-08T11:23:09;24.33;;;14.07;;
7645;SDS011;3864;48.180;14.178;2024-03-08T11:25:37;25.20;;;13.23;;
7645;SDS011;3864;48.180;14.178;2024-03-08T11:34:03;23.67;;;14.07;;
7645;SDS011;3864;48.180;14.178;2024-03-08T11:37:03;21.10;;;12.30;;
7645;SDS011;3864;48.180;14.178;2024-03-08T11:39:58;23.88;;;12.80;;
7645;SDS011;3864;48.180;14.178;2024-03-08T11:42:30;23.70;;;13.20;;
7645;SDS011;3864;48.180;14.178;2024-03-08T11:44:59;24.40;;;13.02;;
7645;SDS011;3864;48.180;14.178;2024-03-08T11:47:39;24.77;;;15.25;;
7645;SDS011;3864;48.180;14.178;2024-03-08T11:50:11;23.98;;;13.25;;
7645;SDS011;3864;48.180;14.178;2024-03-08T11:52:40;24.38;;;14.48;;
7645;SDS011;3864;48.180;14.178;2024-03-08T11:55:10;25.10;;;13.30;;
7645;SDS011;3864;48.180;14.178;2024-03-08T11:57:39;22.90;;;14.35;;
7645;SDS011;3864;48.180;14.178;2024-03-08T12:00:14;21.10;;;13.35;;
7645;SDS011;3864;48.180;14.178;2024-03-08T12:03:04;23.52;;;13.93;;
7645;SDS011;3864;48.180;14.178;2024-03-08T12:05:35;22.63;;;12.73;;
7645;SDS011;3864;48.180;14.178;2024-03-08T12:08:03;23.63;;;12.75;;
7645;SDS011;3864;48.180;14.178;2024-03-08T12:10:36;24.75;;;14.07;;
7645;SDS011;3864;48.180;14.178;2024-03-08T12:13:04;22.27;;;12.02;;
7645;SDS011;3864;48.180;14.178;2024-03-08T12:15:39;20.17;;;12.25;;
7645;SDS011;3864;48.180;14.178;2024-03-08T12:18:09;25.15;;;13.52;;
7645;SDS011;3864;48.180;14.178;2024-03-08T12:20:38;21.48;;;11.95;;
7645;SDS011;3864;48.180;14.178;2024-03-08T12:23:13;22.83;;;12.00;;
7645;SDS011;3864;48.180;14.178;2024-03-08T12:25:43;24.63;;;13.23;;
7645;SDS011;3864;48.180;14.178;2024-03-08T12:28:15;21.00;;;12.02;;
7645;SDS011;3864;48.180;14.178;2024-03-08T12:30:47;19.88;;;12.18;;
7645;SDS011;3864;48.180;14.178;2024-03-08T12:33:16;19.80;;;12.27;;
7645;SDS011;3864;48.180;14.178;2024-03-08T12:35:49;22.38;;;13.18;;
7645;SDS011;3864;48.180;14.178;2024-03-08T12:38:20;20.58;;;11.50;;
7645;SDS011;3864;48.180;14.178;2024-03-08T12:40:54;23.63;;;13.05;;
7645;SDS011;3864;48.180;14.178;2024-03-08T12:43:24;21.25;;;11.95;;
7645;SDS011;3864;48.180;14.178;2024-03-08T12:45:53;21.35;;;13.20;;
7645;SDS011;3864;48.180;14.178;2024-03-08T12:48:20;20.15;;;12.07;;
7645;SDS011;3864;48.180;14.178;2024-03-08T12:50:47;19.52;;;11.25;;
7645;SDS011;3864;48.180;14.178;2024-03-08T12:53:16;18.95;;;12.30;;
7645;SDS011;3864;48.180;14.178;2024-03-08T12:55:44;20.60;;;12.43;;
7645;SDS011;3864;48.180;14.178;2024-03-08T12:58:12;20.15;;;11.02;;
7645;SDS011;3864;48.180;14.178;2024-03-08T13:00:41;18.02;;;11.45;;
7645;SDS011;3864;48.180;14.178;2024-03-08T13:03:09;19.60;;;11.80;;
7645;SDS011;3864;48.180;14.178;2024-03-08T13:05:36;19.08;;;10.70;;
7645;SDS011;3864;48.180;14.178;2024-03-08T13:08:05;18.40;;;10.38;;
7645;SDS011;3864;48.180;14.178;2024-03-08T13:10:37;17.25;;;9.85;;
7645;SDS011;3864;48.180;14.178;2024-03-08T13:13:04;19.05;;;10.50;;
7645;SDS011;3864;48.180;14.178;2024-03-08T13:15:37;17.63;;;10.13;;
7645;SDS011;3864;48.180;14.178;2024-03-08T13:18:07;16.45;;;10.25;;
7645;SDS011;3864;48.180;14.178;2024-03-08T13:20:38;16.02;;;8.73;;
7645;SDS011;3864;48.180;14.178;2024-03-08T13:23:07;19.38;;;11.27;;
7645;SDS011;3864;48.180;14.178;2024-03-08T13:25:34;18.77;;;9.43;;
7645;SDS011;3864;48.180;14.178;2024-03-08T13:28:03;18.05;;;10.38;;
7645;SDS011;3864;48.180;14.178;2024-03-08T13:30:31;16.73;;;9.60;;
7645;SDS011;3864;48.180;14.178;2024-03-08T13:33:02;18.08;;;10.20;;
7645;SDS011;3864;48.180;14.178;2024-03-08T13:35:32;17.60;;;9.73;;
7645;SDS011;3864;48.180;14.178;2024-03-08T13:37:59;17.17;;;11.02;;
7645;SDS011;3864;48.180;14.178;2024-03-08T13:40:28;13.98;;;8.63;;
7645;SDS011;3864;48.180;14.178;2024-03-08T13:42:56;16.23;;;9.05;;
7645;SDS011;3864;48.180;14.178;2024-03-08T13:45:26;16.58;;;8.90;;
7645;SDS011;3864;48.180;14.178;2024-03-08T13:47:53;14.68;;;8.40;;
7645;SDS011;3864;48.180;14.178;2024-03-08T13:50:25;16.88;;;9.48;;
7645;SDS011;3864;48.180;14.178;2024-03-08T13:52:52;19.98;;;9.98;;
7645;SDS011;3864;48.180;14.178;2024-03-08T13:55:19;11.68;;;8.20;;
7645;SDS011;3864;48.180;14.178;2024-03-08T13:57:48;15.57;;;9.45;;
7645;SDS011;3864;48.180;14.178;2024-03-08T14:00:16;15.70;;;8.48;;
7645;SDS011;3864;48.180;14.178;2024-03-08T14:02:47;13.30;;;8.23;;
7645;SDS011;3864;48.180;14.178;2024-03-08T14:05:14;14.52;;;8.60;;
7645;SDS011;3864;48.180;14.178;2024-03-08T14:07:46;14.70;;;8.85;;
7645;SDS011;3864;48.180;14.178;2024-03-08T14:10:14;16.20;;;8.73;;
7645;SDS011;3864;48.180;14.178;2024-03-08T14:12:42;14.20;;;8.15;;
7645;SDS011;3864;48.180;14.178;2024-03-08T14:15:09;14.45;;;7.97;;
7645;SDS011;3864;48.180;14.178;2024-03-08T14:17:37;13.48;;;7.88;;
7645;SDS011;3864;48.180;14.178;2024-03-08T14:20:05;13.88;;;8.65;;
7645;SDS011;3864;48.180;14.178;2024-03-08T14:22:38;14.15;;;7.88;;
7645;SDS011;3864;48.180;14.178;2024-03-08T14:25:09;14.68;;;8.73;;
7645;SDS011;3864;48.180;14.178;2024-03-08T14:27:42;14.10;;;8.15;;
7645;SDS011;3864;48.180;14.178;2024-03-08T14:30:10;15.43;;;8.40;;
7645;SDS011;3864;48.180;14.178;2024-03-08T14:32:37;14.80;;;7.72;;
7645;SDS011;3864;48.180;14.178;2024-03-08T14:35:05;11.07;;;6.85;;
7645;SDS011;3864;48.180;14.178;2024-03-08T14:37:32;11.25;;;7.70;;
7645;SDS011;3864;48.180;14.178;2024-03-08T14:40:00;12.07;;;7.60;;
7645;SDS011;3864;48.180;14.178;2024-03-08T14:42:32;14.02;;;8.40;;
7645;SDS011;3864;48.180;14.178;2024-03-08T14:44:59;15.05;;;8.20;;
7645;SDS011;3864;48.180;14.178;2024-03-08T14:47:26;13.80;;;8.05;;
7645;SDS011;3864;48.180;14.178;2024-03-08T14:49:54;13.02;;;7.88;;
7645;SDS011;3864;48.180;14.178;2024-03-08T14:52:21;14.18;;;7.35;;
7645;SDS011;3864;48.180;14.178;2024-03-08T14:54:56;14.63;;;8.40;;
7645;SDS011;3864;48.180;14.178;2024-03-08T14:57:23;13.93;;;7.88;;
7645;SDS011;3864;48.180;14.178;2024-03-08T14:59:52;13.75;;;7.80;;
7645;SDS011;3864;48.180;14.178;2024-03-08T15:02:19;12.80;;;7.32;;
7645;SDS011;3864;48.180;14.178;2024-03-08T15:04:47;12.65;;;7.70;;
7645;SDS011;3864;48.180;14.178;2024-03-08T15:07:22;14.15;;;7.57;;
7645;SDS011;3864;48.180;14.178;2024-03-08T15:09:50;12.77;;;7.60;;
7645;SDS011;3864;48.180;14.178;2024-03-08T15:12:18;12.70;;;6.57;;
7645;SDS011;3864;48.180;14.178;2024-03-08T15:14:45;12.85;;;8.07;;
7645;SDS011;3864;48.180;14.178;2024-03-08T15:17:15;12.52;;;7.32;;